Del Mar, California
Current Conditions -  °F | °C
As of 7:55 AM on Monday 22 Dec 2014 (Local Time) from KNKX Reporting Station
Clear Clear  
Wind Chill: 57°   Ceiling: Unl
Heat Index: 57°   Visibility: 10mi
Dew Point: 51°   Wind: 5mph
Humidity: 81%   Direction: 80°E
Pressure: 30.03"   Gusts: NA
Location:  32.96°N, 117.27°W
Report Text: KNKX 221555Z 08004KT 10SM CLR 14/11 A3003 RMK AO2 SLP164 T01390106
Loading
Personal Weather Stations






























Interactive Weather Map New forecast layout! Learn more

10-Day Weather Forecast

Advertisements
Track Severe Weather on mobile